Time;durP1;ratioP1;P1;durP2;ratioP2;P2;SDS_P1;SDS_P2;PMS_P1;PMS_P2;Temp;Humidity;BMP_temperature;BMP_pressure;BME280_temperature;BME280_humidity;BME280_pressure;Samples;Min_cycle;Max_cycle;Signal;HPM_P1;HPM_P2
2023/06/03 00:00:14;;;;;;;2.30;1.33;;;;;;;;;;4997217;28;20440;-67
2023/06/03 00:02:53;;;;;;;2.70;1.27;;;;;;;;;;4993541;28;20476;-67
2023/06/03 00:05:26;;;;;;;3.07;1.43;;;;;;;;;;4994729;28;20455;-67
2023/06/03 00:07:57;;;;;;;5.10;1.90;;;;;;;;;;5010964;28;20519;-67
2023/06/03 00:14:59;;;;;;;3.63;1.97;;;;;;;;;;4995521;28;20480;-67
2023/06/03 00:18:26;;;;;;;3.23;1.73;;;;;;;;;;5009975;28;20447;-67
2023/06/03 00:20:55;;;;;;;3.40;1.90;;;;;;;;;;4992724;28;20549;-66
2023/06/03 00:23:22;;;;;;;4.27;1.60;;;;;;;;;;4993399;28;20420;-66
2023/06/03 00:25:49;;;;;;;3.17;1.70;;;;;;;;;;4977300;28;20575;-67
2023/06/03 00:28:15;;;;;;;3.20;1.50;;;;;;;;;;4993124;28;20876;-68
2023/06/03 00:31:00;;;;;;;3.07;1.43;;;;;;;;;;4998238;28;20473;-67
2023/06/03 00:33:26;;;;;;;2.40;1.53;;;;;;;;;;4973218;28;21334;-68
2023/06/03 00:35:53;;;;;;;3.03;1.60;;;;;;;;;;4989012;28;20489;-67
2023/06/03 00:38:20;;;;;;;2.97;1.60;;;;;;;;;;4979053;28;20495;-67
2023/06/03 00:40:49;;;;;;;5.07;1.73;;;;;;;;;;4977264;28;20515;-70
2023/06/03 00:43:26;;;;;;;5.33;1.43;;;;;;;;;;5011125;28;20462;-68
2023/06/03 00:45:54;;;;;;;2.30;1.40;;;;;;;;;;4992717;28;20523;-68
2023/06/03 00:48:21;;;;;;;6.63;1.90;;;;;;;;;;4976819;28;20501;-67
2023/06/03 00:50:47;;;;;;;3.20;1.53;;;;;;;;;;4976765;28;20550;-67
2023/06/03 00:53:14;;;;;;;4.97;1.80;;;;;;;;;;5009538;28;20454;-67
2023/06/03 00:55:59;;;;;;;6.07;1.90;;;;;;;;;;5009572;28;20434;-69
2023/06/03 00:58:26;;;;;;;5.67;1.67;;;;;;;;;;4993424;28;20436;-67
2023/06/03 01:00:53;;;;;;;7.20;2.27;;;;;;;;;;5010121;28;20520;-70
2023/06/03 01:03:20;;;;;;;8.00;1.80;;;;;;;;;;5010178;28;20467;-67
2023/06/03 01:06:07;;;;;;;6.83;2.30;;;;;;;;;;5010028;28;20488;-68
2023/06/03 01:08:36;;;;;;;10.13;2.37;;;;;;;;;;4992221;28;20470;-68
2023/06/03 01:11:07;;;;;;;9.80;2.17;;;;;;;;;;4987880;28;20482;-68
2023/06/03 01:13:45;;;;;;;4.20;1.90;;;;;;;;;;5010067;28;20537;-68
2023/06/03 01:16:12;;;;;;;4.37;1.90;;;;;;;;;;5008967;28;20454;-68
2023/06/03 01:18:39;;;;;;;5.93;2.00;;;;;;;;;;4992334;28;20842;-68
2023/06/03 01:21:07;;;;;;;6.77;1.70;;;;;;;;;;4992164;28;20443;-68
2023/06/03 01:23:36;;;;;;;5.73;1.50;;;;;;;;;;4993012;28;20437;-68
2023/06/03 01:26:22;;;;;;;6.23;1.30;;;;;;;;;;4978917;28;20484;-68
2023/06/03 01:28:49;;;;;;;6.83;1.70;;;;;;;;;;4999006;28;20535;-68
2023/06/03 01:31:16;;;;;;;3.67;1.87;;;;;;;;;;5009145;28;20471;-68
2023/06/03 01:33:43;;;;;;;6.13;1.93;;;;;;;;;;4992057;28;20435;-68
2023/06/03 01:36:12;;;;;;;5.93;1.80;;;;;;;;;;4992396;28;20474;-68
2023/06/03 01:38:56;;;;;;;4.13;1.80;;;;;;;;;;4991938;28;20423;-69
2023/06/03 01:41:25;;;;;;;3.77;1.50;;;;;;;;;;5003060;28;20443;-68
2023/06/03 02:15:49;;;;;;;4.57;1.60;;;;;;;;;;4692936;28;22764;-68
2023/06/03 02:18:16;;;;;;;3.63;1.80;;;;;;;;;;5006145;28;20460;-69
2023/06/03 02:20:43;;;;;;;3.13;1.83;;;;;;;;;;4991933;28;20466;-69
2023/06/03 02:23:10;;;;;;;4.20;2.00;;;;;;;;;;5006076;28;20462;-69
2023/06/03 02:25:37;;;;;;;5.73;1.93;;;;;;;;;;4972288;28;20459;-68
2023/06/03 02:28:04;;;;;;;4.80;1.83;;;;;;;;;;4988605;28;20533;-69
2023/06/03 02:30:31;;;;;;;6.83;2.40;;;;;;;;;;4988342;28;20990;-69
2023/06/03 02:32:58;;;;;;;2.97;1.43;;;;;;;;;;4988322;28;20555;-69
2023/06/03 02:35:24;;;;;;;3.87;2.10;;;;;;;;;;4989483;28;20424;-68
2023/06/03 02:37:51;;;;;;;3.57;1.70;;;;;;;;;;4989693;28;20791;-68
2023/06/03 02:40:35;;;;;;;4.43;2.20;;;;;;;;;;4988237;28;20416;-69
2023/06/03 02:43:02;;;;;;;3.07;1.80;;;;;;;;;;4989904;28;20428;-68
2023/06/03 02:45:30;;;;;;;4.50;1.70;;;;;;;;;;4988125;28;20987;-69
2023/06/03 02:47:58;;;;;;;4.20;1.93;;;;;;;;;;4988106;28;20433;-68
2023/06/03 02:50:25;;;;;;;3.80;1.67;;;;;;;;;;4989276;28;20425;-68
2023/06/03 02:53:09;;;;;;;3.73;1.87;;;;;;;;;;4987997;28;20468;-69
2023/06/03 02:55:36;;;;;;;2.97;1.93;;;;;;;;;;4989415;28;20469;-69
2023/06/03 02:58:21;;;;;;;3.20;1.60;;;;;;;;;;4989501;28;20422;-68
2023/06/03 03:00:47;;;;;;;5.17;1.47;;;;;;;;;;4989460;28;20566;-68
2023/06/03 03:03:35;;;;;;;2.27;1.57;;;;;;;;;;4989047;28;20918;-69
2023/06/03 03:06:11;;;;;;;2.80;1.70;;;;;;;;;;4989385;28;20447;-69
2023/06/03 03:08:38;;;;;;;2.73;1.70;;;;;;;;;;4988189;28;20443;-68
2023/06/03 03:11:06;;;;;;;3.80;2.00;;;;;;;;;;4997034;28;20475;-68
2023/06/03 03:13:32;;;;;;;4.50;1.80;;;;;;;;;;4972208;28;20438;-68
2023/06/03 03:15:59;;;;;;;3.23;1.50;;;;;;;;;;4989065;28;20478;-69
2023/06/03 03:18:27;;;;;;;4.23;1.77;;;;;;;;;;4991335;28;20641;-69
2023/06/03 03:20:54;;;;;;;3.23;1.83;;;;;;;;;;4991569;28;20470;-68
2023/06/03 03:23:21;;;;;;;4.97;1.70;;;;;;;;;;4991721;28;21176;-68
2023/06/03 03:25:48;;;;;;;5.83;1.77;;;;;;;;;;4991253;28;20424;-68
2023/06/03 03:28:16;;;;;;;3.17;1.80;;;;;;;;;;4991706;28;20439;-69
2023/06/03 03:31:04;;;;;;;3.03;1.63;;;;;;;;;;4991745;28;20603;-68
2023/06/03 03:33:33;;;;;;;3.20;2.03;;;;;;;;;;4975803;28;20624;-69
2023/06/03 03:36:22;;;;;;;4.73;1.80;;;;;;;;;;4977748;28;20437;-69
2023/06/03 03:39:01;;;;;;;5.70;2.20;;;;;;;;;;4991006;28;20477;-69
2023/06/03 03:41:51;;;;;;;7.50;1.97;;;;;;;;;;4991220;28;20844;-68
2023/06/03 03:44:19;;;;;;;3.47;1.87;;;;;;;;;;4991016;28;21003;-68
2023/06/03 03:47:06;;;;;;;4.50;2.20;;;;;;;;;;4991236;28;20426;-69
2023/06/03 03:49:34;;;;;;;4.87;2.23;;;;;;;;;;4975110;28;20440;-69
2023/06/03 03:52:05;;;;;;;6.33;2.57;;;;;;;;;;4991420;28;20948;-69
2023/06/03 03:54:37;;;;;;;6.00;2.10;;;;;;;;;;4990937;28;20447;-69
2023/06/03 03:57:22;;;;;;;8.43;2.87;;;;;;;;;;4977343;28;20451;-68
2023/06/03 03:59:52;;;;;;;11.00;3.20;;;;;;;;;;4974975;28;20498;-69
2023/06/03 04:02:41;;;;;;;12.60;2.67;;;;;;;;;;4992166;28;20420;-69
2023/06/03 04:05:14;;;;;;;10.03;3.20;;;;;;;;;;4990351;28;20444;-69
2023/06/03 04:07:40;;;;;;;12.80;2.93;;;;;;;;;;4990844;28;20482;-68
2023/06/03 04:10:09;;;;;;;18.20;4.47;;;;;;;;;;4996556;28;20435;-69
2023/06/03 04:12:36;;;;;;;14.43;3.13;;;;;;;;;;5011386;28;21033;-68
2023/06/03 04:15:06;;;;;;;13.97;2.93;;;;;;;;;;4976116;28;20443;-69
2023/06/03 04:17:37;;;;;;;6.23;2.37;;;;;;;;;;5011563;28;20470;-68
2023/06/03 04:20:09;;;;;;;6.30;1.87;;;;;;;;;;4977281;28;20997;-68
2023/06/03 04:22:35;;;;;;;7.00;2.10;;;;;;;;;;4977948;28;20246;-69
2023/06/03 04:25:07;;;;;;;7.27;2.30;;;;;;;;;;5011397;28;20185;-68
2023/06/03 04:27:54;;;;;;;5.30;2.20;;;;;;;;;;4996716;28;20291;-68
2023/06/03 04:30:21;;;;;;;3.37;2.13;;;;;;;;;;4993572;28;20278;-68
2023/06/03 04:32:49;;;;;;;3.70;1.70;;;;;;;;;;4993308;28;20620;-68
2023/06/03 04:35:18;;;;;;;4.27;2.10;;;;;;;;;;4993031;28;20204;-68
2023/06/03 04:37:46;;;;;;;4.20;1.63;;;;;;;;;;5010946;28;20215;-68
2023/06/03 04:40:16;;;;;;;2.67;1.47;;;;;;;;;;4993631;28;20192;-68
2023/06/03 04:42:46;;;;;;;3.47;1.60;;;;;;;;;;4993245;28;20215;-68
2023/06/03 04:45:14;;;;;;;5.03;1.47;;;;;;;;;;5010967;28;20547;-68
2023/06/03 04:47:42;;;;;;;3.80;1.70;;;;;;;;;;4977381;28;20200;-68
2023/06/03 04:50:10;;;;;;;5.87;1.70;;;;;;;;;;4992757;28;20204;-68
2023/06/03 04:52:38;;;;;;;2.10;1.20;;;;;;;;;;5010629;28;20216;-68
2023/06/03 04:55:08;;;;;;;3.63;1.20;;;;;;;;;;4993088;28;20258;-68
2023/06/03 04:57:37;;;;;;;5.27;1.20;;;;;;;;;;4977010;28;20185;-68
2023/06/03 05:00:09;;;;;;;3.27;1.17;;;;;;;;;;4992808;28;20729;-68
2023/06/03 05:02:36;;;;;;;2.87;0.93;;;;;;;;;;4993061;28;20180;-68
2023/06/03 05:05:04;;;;;;;3.13;1.00;;;;;;;;;;4992557;28;20219;-68
2023/06/03 05:07:31;;;;;;;1.57;0.80;;;;;;;;;;5010721;28;20228;-68
2023/06/03 05:09:59;;;;;;;2.63;0.70;;;;;;;;;;5010500;28;20192;-68
2023/06/03 05:12:28;;;;;;;2.10;0.60;;;;;;;;;;4992383;28;20276;-69
2023/06/03 05:14:55;;;;;;;15.97;1.50;;;;;;;;;;4992538;28;20192;-68
2023/06/03 05:17:21;;;;;;;1.37;0.67;;;;;;;;;;5010049;28;20220;-67
2023/06/03 05:19:48;;;;;;;4.33;0.63;;;;;;;;;;4992166;28;20682;-68
2023/06/03 05:22:15;;;;;;;4.33;0.53;;;;;;;;;;5010597;28;20602;-67
2023/06/03 05:24:42;;;;;;;1.50;0.60;;;;;;;;;;5010320;28;20172;-67
2023/06/03 05:27:11;;;;;;;3.30;0.60;;;;;;;;;;4992607;28;20192;-68
2023/06/03 05:29:38;;;;;;;2.33;0.60;;;;;;;;;;4992574;28;20579;-68
2023/06/03 05:32:06;;;;;;;2.30;0.43;;;;;;;;;;4992225;28;20216;-68
2023/06/03 05:34:34;;;;;;;1.30;0.50;;;;;;;;;;4992509;28;20281;-68
2023/06/03 05:37:01;;;;;;;1.37;0.60;;;;;;;;;;4992781;28;20295;-68
2023/06/03 05:39:28;;;;;;;1.63;0.37;;;;;;;;;;4991793;28;20243;-68
2023/06/03 05:41:55;;;;;;;2.07;0.50;;;;;;;;;;4976195;28;20282;-68
2023/06/03 05:44:40;;;;;;;1.40;0.40;;;;;;;;;;4992243;28;20195;-68
2023/06/03 05:47:07;;;;;;;1.27;0.47;;;;;;;;;;4992177;28;20703;-68
2023/06/03 05:49:51;;;;;;;2.07;0.40;;;;;;;;;;5009346;28;20160;-68
2023/06/03 05:52:18;;;;;;;0.67;0.30;;;;;;;;;;5009892;28;20207;-68
2023/06/03 05:55:04;;;;;;;2.93;0.60;;;;;;;;;;4992263;28;20176;-67
2023/06/03 05:57:33;;;;;;;2.40;0.40;;;;;;;;;;4991888;28;20200;-68
2023/06/03 06:00:00;;;;;;;1.83;0.40;;;;;;;;;;4992017;28;20204;-68
2023/06/03 06:02:28;;;;;;;1.47;0.50;;;;;;;;;;4992074;28;20271;-68
2023/06/03 06:04:56;;;;;;;6.20;0.57;;;;;;;;;;5009442;28;20224;-68
2023/06/03 06:07:40;;;;;;;1.93;0.50;;;;;;;;;;4991826;28;20183;-67
2023/06/03 06:10:07;;;;;;;2.40;0.40;;;;;;;;;;5005193;28;20190;-68
2023/06/03 06:12:34;;;;;;;0.90;0.50;;;;;;;;;;4971989;28;20197;-68
2023/06/03 06:15:01;;;;;;;0.63;0.40;;;;;;;;;;4972306;28;20189;-67
2023/06/03 06:17:28;;;;;;;1.93;0.60;;;;;;;;;;4987242;28;20220;-68
2023/06/03 06:20:13;;;;;;;2.10;0.50;;;;;;;;;;4991858;28;20539;-68
2023/06/03 06:22:41;;;;;;;1.77;0.53;;;;;;;;;;4991613;28;20196;-68
2023/06/03 06:25:09;;;;;;;1.27;0.53;;;;;;;;;;4991863;28;20206;-67
2023/06/03 06:27:36;;;;;;;0.83;0.47;;;;;;;;;;5009062;28;20227;-68
2023/06/03 06:30:04;;;;;;;0.40;0.40;;;;;;;;;;4975888;28;20204;-68
2023/06/03 06:32:49;;;;;;;0.80;0.50;;;;;;;;;;5008924;28;20196;-68
2023/06/03 06:35:26;;;;;;;3.10;0.70;;;;;;;;;;4991512;28;20651;-67
2023/06/03 06:38:10;;;;;;;1.37;0.50;;;;;;;;;;4991446;28;20187;-68
2023/06/03 06:40:40;;;;;;;1.27;0.50;;;;;;;;;;4991245;28;20202;-68
2023/06/03 06:43:12;;;;;;;3.63;0.63;;;;;;;;;;4991832;28;20528;-68
2023/06/03 06:45:50;;;;;;;0.57;0.40;;;;;;;;;;4991206;28;20278;-67
2023/06/03 06:48:17;;;;;;;1.30;0.30;;;;;;;;;;4975385;28;20257;-68
2023/06/03 06:50:51;;;;;;;0.40;0.30;;;;;;;;;;4976545;28;20207;-68
2023/06/03 06:53:35;;;;;;;1.33;0.60;;;;;;;;;;4995370;28;20290;-68
2023/06/03 06:56:07;;;;;;;1.00;0.67;;;;;;;;;;4995265;28;20196;-68
2023/06/03 06:58:41;;;;;;;1.00;0.47;;;;;;;;;;5013075;28;20270;-68
2023/06/03 07:01:10;;;;;;;1.20;0.50;;;;;;;;;;4995097;28;20597;-67
2023/06/03 07:03:42;;;;;;;1.30;0.63;;;;;;;;;;4994840;28;20188;-68
2023/06/03 07:06:10;;;;;;;0.80;0.40;;;;;;;;;;4994433;28;20204;-66
2023/06/03 07:08:38;;;;;;;1.23;0.70;;;;;;;;;;4994760;28;20315;-67
2023/06/03 07:11:06;;;;;;;1.87;0.50;;;;;;;;;;4994391;28;20249;-64
2023/06/03 07:13:38;;;;;;;1.53;0.60;;;;;;;;;;5012347;28;21033;-67
2023/06/03 07:16:24;;;;;;;1.37;0.70;;;;;;;;;;5012598;28;20298;-66
2023/06/03 07:18:53;;;;;;;5.00;1.00;;;;;;;;;;4994159;28;20220;-67
2023/06/03 07:21:41;;;;;;;1.77;0.67;;;;;;;;;;5011343;28;20251;-67
2023/06/03 07:24:10;;;;;;;1.53;0.60;;;;;;;;;;4994312;28;20200;-67
2023/06/03 07:26:39;;;;;;;3.83;0.57;;;;;;;;;;4993830;28;20294;-67
2023/06/03 07:29:07;;;;;;;1.37;0.50;;;;;;;;;;4986669;28;20189;-67
2023/06/03 07:31:35;;;;;;;2.77;0.73;;;;;;;;;;4976556;28;20197;-67
2023/06/03 07:34:03;;;;;;;1.90;0.50;;;;;;;;;;4976303;28;20220;-67
2023/06/03 07:36:38;;;;;;;2.87;0.60;;;;;;;;;;4961574;28;20192;-68
2023/06/03 07:39:06;;;;;;;3.70;0.70;;;;;;;;;;4979932;28;20246;-67
2023/06/03 07:41:45;;;;;;;2.13;0.60;;;;;;;;;;4984258;28;20204;-67
2023/06/03 07:44:32;;;;;;;1.40;0.83;;;;;;;;;;4975803;28;20181;-67
2023/06/03 07:46:59;;;;;;;2.63;0.70;;;;;;;;;;4976226;28;20192;-67
2023/06/03 07:49:47;;;;;;;2.10;0.60;;;;;;;;;;4977219;28;20202;-67
2023/06/03 07:52:18;;;;;;;0.83;0.63;;;;;;;;;;4987610;28;20283;-68
2023/06/03 07:54:45;;;;;;;5.23;0.70;;;;;;;;;;4993144;28;20235;-68
2023/06/03 07:57:15;;;;;;;1.00;0.50;;;;;;;;;;4993016;28;20193;-67
2023/06/03 07:59:47;;;;;;;1.70;0.60;;;;;;;;;;4993220;28;20267;-67
2023/06/03 08:02:14;;;;;;;2.27;0.70;;;;;;;;;;4993224;28;20287;-67
2023/06/03 08:04:41;;;;;;;2.27;0.73;;;;;;;;;;4993605;28;20181;-67
2023/06/03 08:07:08;;;;;;;0.90;0.60;;;;;;;;;;4976456;28;20311;-68
2023/06/03 08:09:52;;;;;;;4.73;0.77;;;;;;;;;;4980700;28;20291;-67
2023/06/03 08:12:19;;;;;;;4.00;0.80;;;;;;;;;;5001817;28;20220;-67
2023/06/03 08:15:03;;;;;;;1.33;0.67;;;;;;;;;;4978739;28;20641;-67
2023/06/03 08:17:36;;;;;;;1.57;0.57;;;;;;;;;;4987939;28;20232;-68
2023/06/03 08:20:26;;;;;;;1.47;0.53;;;;;;;;;;4992266;28;20388;-67
2023/06/03 08:22:53;;;;;;;2.90;0.70;;;;;;;;;;4993251;28;20204;-68
2023/06/03 08:25:37;;;;;;;1.53;0.63;;;;;;;;;;4993125;28;20161;-68
2023/06/03 08:28:04;;;;;;;2.90;0.70;;;;;;;;;;4992318;28;20197;-68
2023/06/03 08:30:49;;;;;;;3.43;0.60;;;;;;;;;;4992519;28;20180;-68
2023/06/03 08:33:15;;;;;;;1.03;0.57;;;;;;;;;;4992190;28;20238;-68
2023/06/03 08:35:43;;;;;;;2.10;0.70;;;;;;;;;;4992353;28;20189;-68
2023/06/03 08:38:10;;;;;;;1.40;0.90;;;;;;;;;;4992850;28;20339;-66
2023/06/03 08:40:38;;;;;;;3.23;0.70;;;;;;;;;;4992833;28;20560;-67
2023/06/03 08:43:04;;;;;;;1.13;0.70;;;;;;;;;;4974891;28;20541;-67
2023/06/03 08:45:35;;;;;;;2.53;0.70;;;;;;;;;;4990707;28;20247;-67
2023/06/03 08:48:05;;;;;;;2.33;0.70;;;;;;;;;;4991077;28;20276;-67
2023/06/03 08:50:49;;;;;;;1.30;0.50;;;;;;;;;;4992466;28;20184;-67
2023/06/03 08:53:16;;;;;;;1.23;0.60;;;;;;;;;;4991352;28;20236;-68
2023/06/03 08:55:43;;;;;;;2.63;0.80;;;;;;;;;;4991405;28;20513;-67
2023/06/03 08:58:23;;;;;;;2.50;0.63;;;;;;;;;;4990899;28;20224;-67
2023/06/03 09:01:07;;;;;;;1.13;0.50;;;;;;;;;;4989845;28;20641;-67
2023/06/03 09:03:34;;;;;;;2.70;0.67;;;;;;;;;;4990438;28;20267;-68
2023/06/03 09:06:01;;;;;;;1.47;0.70;;;;;;;;;;5002551;28;20918;-68
2023/06/03 09:08:28;;;;;;;1.77;0.60;;;;;;;;;;5009774;28;20188;-68
2023/06/03 09:10:54;;;;;;;1.57;0.60;;;;;;;;;;5010131;28;20199;-67
2023/06/03 09:13:21;;;;;;;1.80;0.57;;;;;;;;;;5007892;28;20219;-67
2023/06/03 09:15:48;;;;;;;1.50;0.57;;;;;;;;;;5011485;28;20540;-67
2023/06/03 09:18:15;;;;;;;0.97;0.50;;;;;;;;;;5030032;28;20286;-67
2023/06/03 09:20:59;;;;;;;1.23;0.60;;;;;;;;;;5029625;28;20178;-67
2023/06/03 09:23:29;;;;;;;1.13;0.60;;;;;;;;;;5012425;28;20643;-68
2023/06/03 09:25:55;;;;;;;1.13;0.57;;;;;;;;;;5011968;28;20191;-67
2023/06/03 09:28:22;;;;;;;1.70;0.60;;;;;;;;;;5029468;28;20184;-68
2023/06/03 09:30:49;;;;;;;0.60;0.40;;;;;;;;;;5029268;28;20192;-68
2023/06/03 09:33:18;;;;;;;0.90;0.50;;;;;;;;;;5029356;28;20204;-67
2023/06/03 09:36:04;;;;;;;1.70;0.50;;;;;;;;;;5029003;28;20234;-67
2023/06/03 09:38:50;;;;;;;1.93;0.53;;;;;;;;;;5028983;28;20214;-68
2023/06/03 09:41:19;;;;;;;4.30;0.67;;;;;;;;;;5029367;28;20203;-68
2023/06/03 09:43:52;;;;;;;1.77;0.60;;;;;;;;;;5029144;28;20218;-68
2023/06/03 09:46:19;;;;;;;0.77;0.57;;;;;;;;;;5029565;28;20269;-68
2023/06/03 09:48:46;;;;;;;1.83;1.60;;;;;;;;;;5029095;28;20261;-67
2023/06/03 09:51:13;;;;;;;1.70;1.20;;;;;;;;;;5011825;28;20214;-67
2023/06/03 09:53:39;;;;;;;4.00;1.87;;;;;;;;;;5028764;28;20570;-67
2023/06/03 09:56:23;;;;;;;10.40;2.53;;;;;;;;;;5029031;28;20677;-67
2023/06/03 09:58:51;;;;;;;1.57;0.53;;;;;;;;;;5028781;28;20219;-67
2023/06/03 10:01:31;;;;;;;2.50;0.67;;;;;;;;;;5029408;28;20190;-68
2023/06/03 10:04:00;;;;;;;3.53;1.90;;;;;;;;;;5029198;28;20187;-67
2023/06/03 10:06:27;;;;;;;1.57;0.67;;;;;;;;;;5028685;28;20278;-67
2023/06/03 10:09:00;;;;;;;1.30;0.60;;;;;;;;;;5028875;28;20274;-67
2023/06/03 10:11:27;;;;;;;1.80;0.60;;;;;;;;;;5028501;28;20187;-67
2023/06/03 10:14:11;;;;;;;1.80;0.47;;;;;;;;;;5013856;28;20195;-66
2023/06/03 10:16:37;;;;;;;3.43;1.03;;;;;;;;;;5028284;28;20733;-67
2023/06/03 10:19:04;;;;;;;5.77;3.70;;;;;;;;;;5028732;28;20633;-67
2023/06/03 10:21:31;;;;;;;3.27;2.67;;;;;;;;;;5011074;28;20248;-66
2023/06/03 10:23:58;;;;;;;8.83;5.97;;;;;;;;;;5028656;28;20611;-66
2023/06/03 10:26:42;;;;;;;1.90;1.43;;;;;;;;;;5035138;28;20305;-67
2023/06/03 10:29:09;;;;;;;11.30;7.43;;;;;;;;;;5017467;28;20171;-67
2023/06/03 10:31:36;;;;;;;1.63;0.53;;;;;;;;;;5017515;28;20178;-67
2023/06/03 10:34:03;;;;;;;3.83;0.60;;;;;;;;;;5017631;28;20219;-67
2023/06/03 10:36:30;;;;;;;1.97;0.70;;;;;;;;;;5017202;28;20187;-67
2023/06/03 10:38:56;;;;;;;2.53;0.50;;;;;;;;;;5017671;28;20232;-67
2023/06/03 10:41:23;;;;;;;2.20;0.47;;;;;;;;;;5017276;28;20195;-67
2023/06/03 10:43:50;;;;;;;1.40;0.60;;;;;;;;;;5034663;28;20613;-67
2023/06/03 10:46:16;;;;;;;2.43;0.50;;;;;;;;;;5035405;28;20205;-68
2023/06/03 10:48:44;;;;;;;0.73;0.60;;;;;;;;;;5017251;28;20191;-67
2023/06/03 10:51:17;;;;;;;1.50;0.60;;;;;;;;;;5034945;28;20191;-68
2023/06/03 10:53:50;;;;;;;2.23;0.60;;;;;;;;;;5035135;28;20218;-67
2023/06/03 10:56:26;;;;;;;2.03;0.60;;;;;;;;;;5017532;28;20579;-68
2023/06/03 10:59:11;;;;;;;0.40;0.40;;;;;;;;;;5033499;28;20182;-68
2023/06/03 11:02:01;;;;;;;0.90;0.60;;;;;;;;;;5035171;28;20195;-68
2023/06/03 11:04:31;;;;;;;1.30;0.87;;;;;;;;;;5034917;28;20215;-67
2023/06/03 11:06:58;;;;;;;4.33;3.63;;;;;;;;;;5034899;28;20248;-68
2023/06/03 11:09:45;;;;;;;1.87;1.20;;;;;;;;;;5034889;28;20183;-67
2023/06/03 11:12:15;;;;;;;4.67;2.20;;;;;;;;;;5015220;28;20262;-68
2023/06/03 11:14:51;;;;;;;3.37;0.73;;;;;;;;;;5014709;28;20706;-67
2023/06/03 11:17:36;;;;;;;2.03;0.70;;;;;;;;;;5015087;28;20606;-68
2023/06/03 11:20:03;;;;;;;2.13;0.70;;;;;;;;;;5014890;28;20556;-67
2023/06/03 11:22:37;;;;;;;1.67;0.70;;;;;;;;;;5015426;28;20223;-67
2023/06/03 11:25:05;;;;;;;2.60;0.80;;;;;;;;;;5015212;28;20204;-67
2023/06/03 11:27:49;;;;;;;1.23;0.63;;;;;;;;;;5014983;28;20179;-68
2023/06/03 11:30:16;;;;;;;2.50;0.77;;;;;;;;;;5014899;28;20594;-67
2023/06/03 11:32:43;;;;;;;1.67;0.73;;;;;;;;;;4997757;28;20196;-67
2023/06/03 11:35:10;;;;;;;3.33;0.70;;;;;;;;;;5015072;28;20212;-68
2023/06/03 11:37:40;;;;;;;2.67;0.63;;;;;;;;;;5012029;28;20184;-67
2023/06/03 11:40:24;;;;;;;2.53;0.83;;;;;;;;;;5012122;28;20183;-68
2023/06/03 11:42:50;;;;;;;13.13;0.97;;;;;;;;;;5012068;28;20199;-67
2023/06/03 11:45:37;;;;;;;1.50;0.80;;;;;;;;;;5012123;28;20168;-67
2023/06/03 11:48:08;;;;;;;4.60;0.70;;;;;;;;;;4994740;28;20287;-67
2023/06/03 11:50:57;;;;;;;1.70;0.53;;;;;;;;;;5011559;28;20868;-67
2023/06/03 11:53:28;;;;;;;1.53;0.80;;;;;;;;;;4994758;28;20208;-67
2023/06/03 11:56:13;;;;;;;2.20;0.50;;;;;;;;;;5011316;28;20176;-67
2023/06/03 11:58:43;;;;;;;1.63;0.57;;;;;;;;;;5011228;28;20641;-68
2023/06/03 12:01:28;;;;;;;2.33;0.70;;;;;;;;;;5011229;28;20600;-67
2023/06/03 12:04:01;;;;;;;2.63;0.90;;;;;;;;;;5011383;28;20184;-67
2023/06/03 12:06:37;;;;;;;1.30;0.73;;;;;;;;;;4993333;28;20546;-67
2023/06/03 12:09:03;;;;;;;3.67;0.70;;;;;;;;;;5011085;28;20208;-68
2023/06/03 12:11:47;;;;;;;1.80;0.70;;;;;;;;;;5029281;28;20186;-67
2023/06/03 12:14:33;;;;;;;1.53;0.60;;;;;;;;;;5030828;28;20555;-67
2023/06/03 12:17:09;;;;;;;3.30;0.83;;;;;;;;;;5030711;28;20250;-67
2023/06/03 12:19:39;;;;;;;1.77;0.63;;;;;;;;;;5030484;28;20179;-67
2023/06/03 12:22:24;;;;;;;0.90;0.50;;;;;;;;;;5029304;28;20655;-67
2023/06/03 12:24:51;;;;;;;2.33;0.70;;;;;;;;;;5032453;28;20191;-67
2023/06/03 12:27:19;;;;;;;1.60;0.70;;;;;;;;;;5014667;28;20250;-67
2023/06/03 12:29:47;;;;;;;1.70;1.07;;;;;;;;;;5032229;28;20866;-67
2023/06/03 12:32:14;;;;;;;4.40;0.70;;;;;;;;;;5032231;28;20249;-67
2023/06/03 12:34:41;;;;;;;1.57;0.90;;;;;;;;;;5014664;28;20219;-67
2023/06/03 12:37:08;;;;;;;1.50;0.80;;;;;;;;;;4994895;28;20202;-68
2023/06/03 12:39:39;;;;;;;3.63;0.90;;;;;;;;;;5031317;28;20725;-67
2023/06/03 12:42:06;;;;;;;1.20;0.70;;;;;;;;;;5031773;28;20188;-67
2023/06/03 12:44:43;;;;;;;1.53;0.80;;;;;;;;;;4997720;28;20196;-68
2023/06/03 12:47:10;;;;;;;1.93;0.60;;;;;;;;;;5031449;28;20195;-68
2023/06/03 12:49:37;;;;;;;1.80;0.70;;;;;;;;;;5012605;28;20189;-67
2023/06/03 12:52:21;;;;;;;2.67;1.17;;;;;;;;;;5014005;28;20195;-68
2023/06/03 12:54:50;;;;;;;2.77;1.10;;;;;;;;;;5031641;28;20225;-67
2023/06/03 12:57:17;;;;;;;4.40;0.93;;;;;;;;;;5031686;28;20187;-67
2023/06/03 12:59:57;;;;;;;2.40;0.73;;;;;;;;;;5014114;28;20187;-67
2023/06/03 13:02:43;;;;;;;2.17;0.80;;;;;;;;;;5016364;28;20234;-67
2023/06/03 13:05:12;;;;;;;2.67;0.90;;;;;;;;;;5031140;28;20643;-67
2023/06/03 13:07:39;;;;;;;2.40;0.90;;;;;;;;;;5014520;28;20658;-67
2023/06/03 13:10:07;;;;;;;1.90;0.90;;;;;;;;;;5031462;28;20215;-67
2023/06/03 13:12:34;;;;;;;2.30;1.10;;;;;;;;;;5031726;28;20195;-67
2023/06/03 13:15:18;;;;;;;2.73;0.70;;;;;;;;;;5031317;28;20727;-67
2023/06/03 13:17:47;;;;;;;2.60;0.73;;;;;;;;;;5031105;28;20224;-68
2023/06/03 13:20:32;;;;;;;1.43;0.97;;;;;;;;;;5031150;28;20182;-67
2023/06/03 13:22:58;;;;;;;1.83;0.60;;;;;;;;;;5031431;28;20184;-68
2023/06/03 13:25:42;;;;;;;1.83;0.70;;;;;;;;;;5031262;28;20171;-68
2023/06/03 13:28:09;;;;;;;3.17;0.80;;;;;;;;;;5013286;28;20298;-70
2023/06/03 13:30:36;;;;;;;0.70;0.57;;;;;;;;;;5030339;28;20752;-68
2023/06/03 13:33:03;;;;;;;2.73;0.80;;;;;;;;;;5031264;28;20196;-68
2023/06/03 13:35:30;;;;;;;3.27;0.70;;;;;;;;;;5030515;28;20226;-68
2023/06/03 13:37:56;;;;;;;3.90;0.73;;;;;;;;;;5030685;28;20190;-68
2023/06/03 13:40:23;;;;;;;1.60;0.80;;;;;;;;;;5030417;28;20195;-68
2023/06/03 13:42:50;;;;;;;1.97;0.90;;;;;;;;;;5030853;28;20263;-68
2023/06/03 13:45:16;;;;;;;3.50;0.80;;;;;;;;;;5031262;28;20191;-68
2023/06/03 13:47:43;;;;;;;2.77;0.67;;;;;;;;;;5031179;28;20202;-68
2023/06/03 13:50:10;;;;;;;6.37;1.43;;;;;;;;;;5030569;28;20192;-68
2023/06/03 13:52:54;;;;;;;1.30;0.80;;;;;;;;;;5012318;28;20252;-69
2023/06/03 13:55:21;;;;;;;1.17;0.60;;;;;;;;;;5030625;28;20561;-68
2023/06/03 13:57:48;;;;;;;1.67;0.70;;;;;;;;;;5030679;28;20526;-68
2023/06/03 14:00:14;;;;;;;2.30;0.80;;;;;;;;;;5030401;28;20274;-67
2023/06/03 14:02:41;;;;;;;3.30;1.07;;;;;;;;;;5030629;28;20215;-68
2023/06/03 14:05:09;;;;;;;1.60;0.70;;;;;;;;;;5030890;28;20188;-68
2023/06/03 14:07:35;;;;;;;1.63;0.70;;;;;;;;;;5030221;28;20222;-68
2023/06/03 14:10:05;;;;;;;0.87;0.67;;;;;;;;;;5030446;28;20188;-68
2023/06/03 14:12:49;;;;;;;1.97;0.70;;;;;;;;;;5030317;28;20274;-68
2023/06/03 14:15:16;;;;;;;1.50;0.60;;;;;;;;;;5030646;28;20246;-68
2023/06/03 14:17:43;;;;;;;2.07;0.80;;;;;;;;;;5030179;28;20294;-68
2023/06/03 14:20:10;;;;;;;2.37;0.83;;;;;;;;;;5029873;28;20215;-68
2023/06/03 14:22:37;;;;;;;1.50;0.57;;;;;;;;;;5012549;28;20207;-68
2023/06/03 14:25:21;;;;;;;1.60;0.70;;;;;;;;;;5029931;28;20206;-68
2023/06/03 14:27:47;;;;;;;3.83;0.80;;;;;;;;;;5012068;28;20282;-69
2023/06/03 14:30:14;;;;;;;1.23;0.80;;;;;;;;;;5029742;28;20205;-69
2023/06/03 14:32:41;;;;;;;1.30;0.77;;;;;;;;;;5030050;28;20192;-67
2023/06/03 14:35:08;;;;;;;1.80;1.10;;;;;;;;;;5012763;28;20950;-68
2023/06/03 14:37:52;;;;;;;3.60;1.80;;;;;;;;;;5018140;28;20266;-68
2023/06/03 14:40:19;;;;;;;1.70;1.17;;;;;;;;;;5030084;28;20674;-68
2023/06/03 14:43:03;;;;;;;2.30;0.93;;;;;;;;;;5029567;28;20630;-68
2023/06/03 14:45:30;;;;;;;3.90;1.00;;;;;;;;;;5029560;28;20222;-69
2023/06/03 14:48:15;;;;;;;3.00;0.60;;;;;;;;;;5030411;28;20744;-68
2023/06/03 14:50:42;;;;;;;2.07;0.47;;;;;;;;;;5012830;28;20191;-68
2023/06/03 14:53:26;;;;;;;1.87;0.50;;;;;;;;;;5015802;28;20186;-67
2023/06/03 14:55:53;;;;;;;1.07;0.60;;;;;;;;;;5012581;28;20218;-68
2023/06/03 14:58:21;;;;;;;3.80;0.60;;;;;;;;;;5029940;28;20188;-68
2023/06/03 15:00:48;;;;;;;3.33;0.70;;;;;;;;;;5030505;28;20223;-68
2023/06/03 15:03:15;;;;;;;1.57;0.60;;;;;;;;;;5030387;28;20642;-68
2023/06/03 15:05:42;;;;;;;1.30;0.50;;;;;;;;;;5030323;28;20183;-68
2023/06/03 15:08:09;;;;;;;1.57;0.40;;;;;;;;;;5011818;28;20599;-68
2023/06/03 15:10:36;;;;;;;1.03;0.60;;;;;;;;;;5029496;28;20203;-69
2023/06/03 15:13:20;;;;;;;2.10;0.70;;;;;;;;;;5032596;28;20176;-68
2023/06/03 15:15:47;;;;;;;1.17;0.70;;;;;;;;;;5033058;28;20227;-69
2023/06/03 15:18:14;;;;;;;1.80;0.67;;;;;;;;;;5015458;28;20210;-68
2023/06/03 15:20:46;;;;;;;2.23;0.60;;;;;;;;;;5033441;28;20188;-69
2023/06/03 15:23:13;;;;;;;0.60;0.60;;;;;;;;;;5032901;28;20254;-69
2023/06/03 15:25:40;;;;;;;2.73;0.70;;;;;;;;;;5034076;28;20195;-69
2023/06/03 15:28:07;;;;;;;3.13;0.70;;;;;;;;;;5033708;28;20207;-69
2023/06/03 15:30:33;;;;;;;2.43;0.60;;;;;;;;;;5033217;28;20191;-69
2023/06/03 15:33:00;;;;;;;3.60;0.60;;;;;;;;;;5033102;28;20274;-69
2023/06/03 15:35:27;;;;;;;1.30;0.60;;;;;;;;;;5032832;28;20889;-69
2023/06/03 15:37:54;;;;;;;1.33;0.70;;;;;;;;;;5033603;28;20191;-70
2023/06/03 15:40:20;;;;;;;3.50;0.70;;;;;;;;;;5033616;28;20278;-69
2023/06/03 15:42:47;;;;;;;1.13;0.67;;;;;;;;;;5033314;28;20222;-69
2023/06/03 15:45:14;;;;;;;1.23;0.73;;;;;;;;;;5033346;28;20666;-70